Terminal Aerodrome Forecast
Issued by NWS

Home | Current Version | Previous Version | Text Only | Print | Product List | Glossary On
Versions: 1 2 3 4 5 6 7 8 9 10 11 12 13 14 15
223
FTUS43 KPAH 212320
TAFCGI
TAF
KCGI 212320Z 2200/2224 VRB03KT P6SM SKC
     FM220600 00000KT 2SM BR BCFG SCT002
     FM221330 15004KT P6SM FEW250=

USA.gov is the U.S. government's official web portal to all federal, state and local government web resources and services.